Time;durP1;ratioP1;P1;durP2;ratioP2;P2;SDS_P1;SDS_P2;PMS_P1;PMS_P2;Temp;Humidity;BMP_temperature;BMP_pressure;BME280_temperature;BME280_humidity;BME280_pressure;Samples;Min_cycle;Max_cycle;Signal;HPM_P1;HPM_P2
2023/12/18 00:00:34;;;;;;;7.85;7.05;;;;;;;;;;5052420;28;20919;-69
2023/12/18 00:03:01;;;;;;;9.32;7.43;;;;;;;;;;5054184;28;20941;-69
2023/12/18 00:05:28;;;;;;;11.10;8.15;;;;;;;;;;5046425;28;20937;-68
2023/12/18 00:07:56;;;;;;;8.38;7.45;;;;;;;;;;5062849;28;20440;-69
2023/12/18 00:10:23;;;;;;;8.50;7.60;;;;;;;;;;5056814;28;20437;-69
2023/12/18 00:12:50;;;;;;;9.43;7.47;;;;;;;;;;5052057;28;20504;-69
2023/12/18 00:15:17;;;;;;;8.70;7.40;;;;;;;;;;5054611;28;20421;-67
2023/12/18 00:17:44;;;;;;;9.15;7.20;;;;;;;;;;5048229;28;20432;-67
2023/12/18 00:20:12;;;;;;;9.73;7.50;;;;;;;;;;5053531;28;20458;-67
2023/12/18 00:22:39;;;;;;;9.55;7.68;;;;;;;;;;5053121;28;20431;-67
2023/12/18 00:25:08;;;;;;;8.70;7.90;;;;;;;;;;5045833;28;20958;-69
2023/12/18 00:27:35;;;;;;;8.82;7.53;;;;;;;;;;5042402;28;20432;-67
2023/12/18 00:30:02;;;;;;;10.27;7.80;;;;;;;;;;5046440;28;20800;-69
2023/12/18 00:32:29;;;;;;;11.73;7.63;;;;;;;;;;5056397;28;20444;-67
2023/12/18 00:34:56;;;;;;;8.75;7.95;;;;;;;;;;5049384;28;20432;-68
2023/12/18 00:37:23;;;;;;;9.65;7.57;;;;;;;;;;5056538;28;20551;-68
2023/12/18 00:39:50;;;;;;;9.25;7.72;;;;;;;;;;5048771;28;20443;-68
2023/12/18 00:42:19;;;;;;;8.40;7.60;;;;;;;;;;5061899;28;20407;-69
2023/12/18 00:44:46;;;;;;;10.07;7.90;;;;;;;;;;5040883;28;20468;-69
2023/12/18 00:47:13;;;;;;;11.10;8.23;;;;;;;;;;5049770;28;20443;-68
2023/12/18 00:49:40;;;;;;;8.60;7.75;;;;;;;;;;5063562;28;20420;-66
2023/12/18 00:52:07;;;;;;;10.68;8.35;;;;;;;;;;5059876;28;20429;-69
2023/12/18 00:54:34;;;;;;;9.75;8.57;;;;;;;;;;5049791;28;20779;-69
2023/12/18 00:57:01;;;;;;;10.52;8.18;;;;;;;;;;5053628;28;20436;-69
2023/12/18 00:59:29;;;;;;;10.50;8.25;;;;;;;;;;5058775;28;20450;-69
2023/12/18 01:01:56;;;;;;;9.33;8.23;;;;;;;;;;5049542;28;20436;-69
2023/12/18 01:04:23;;;;;;;9.40;8.20;;;;;;;;;;5052804;28;20767;-69
2023/12/18 01:06:50;;;;;;;12.60;9.15;;;;;;;;;;5049605;28;20424;-69
2023/12/18 01:09:16;;;;;;;9.02;8.13;;;;;;;;;;5052540;28;20433;-69
2023/12/18 01:11:44;;;;;;;11.00;8.60;;;;;;;;;;5051558;28;20423;-69
2023/12/18 01:14:11;;;;;;;9.65;8.45;;;;;;;;;;5053596;28;20846;-69
2023/12/18 01:16:40;;;;;;;12.53;8.60;;;;;;;;;;5052044;28;20459;-69
2023/12/18 01:19:07;;;;;;;9.45;8.40;;;;;;;;;;5053166;28;20410;-68
2023/12/18 01:21:34;;;;;;;9.77;8.77;;;;;;;;;;5052334;28;20444;-69
2023/12/18 01:24:01;;;;;;;9.57;8.30;;;;;;;;;;5050886;28;20427;-69
2023/12/18 01:26:28;;;;;;;10.65;8.80;;;;;;;;;;5054694;28;20408;-69
2023/12/18 01:28:55;;;;;;;11.65;8.77;;;;;;;;;;5053433;28;20411;-68
2023/12/18 01:31:22;;;;;;;11.10;8.45;;;;;;;;;;5047831;28;20456;-69
2023/12/18 01:33:51;;;;;;;10.93;8.82;;;;;;;;;;5054258;28;20722;-68
2023/12/18 01:36:18;;;;;;;12.02;9.10;;;;;;;;;;5058173;28;20434;-69
2023/12/18 01:38:45;;;;;;;9.73;8.50;;;;;;;;;;5056595;28;20412;-68
2023/12/18 01:41:12;;;;;;;10.07;8.32;;;;;;;;;;5039946;28;20847;-69
2023/12/18 01:43:39;;;;;;;11.75;8.68;;;;;;;;;;5044316;28;20448;-69
2023/12/18 01:46:07;;;;;;;9.43;8.40;;;;;;;;;;5044294;28;20907;-69
2023/12/18 01:48:35;;;;;;;9.68;8.68;;;;;;;;;;5042722;28;20420;-68
2023/12/18 01:51:04;;;;;;;12.53;9.57;;;;;;;;;;5048338;28;21004;-69
2023/12/18 01:53:32;;;;;;;10.20;9.07;;;;;;;;;;5046690;28;20440;-69
2023/12/18 01:56:01;;;;;;;10.80;9.00;;;;;;;;;;5049709;28;20953;-68
2023/12/18 01:58:28;;;;;;;11.25;9.73;;;;;;;;;;5049950;28;20430;-68
2023/12/18 02:00:55;;;;;;;12.20;9.82;;;;;;;;;;5048013;28;20427;-66
2023/12/18 02:03:24;;;;;;;12.07;9.38;;;;;;;;;;5047281;28;20460;-68
2023/12/18 02:05:51;;;;;;;10.83;9.70;;;;;;;;;;5049353;28;20592;-68
2023/12/18 02:08:19;;;;;;;10.88;9.77;;;;;;;;;;5043874;28;20443;-68
2023/12/18 02:10:47;;;;;;;10.60;8.90;;;;;;;;;;5049199;28;20420;-68
2023/12/18 02:13:14;;;;;;;12.33;9.30;;;;;;;;;;5044275;28;20448;-68
2023/12/18 02:15:41;;;;;;;10.85;9.07;;;;;;;;;;5075024;22;20456;-69
2023/12/18 02:18:09;;;;;;;12.00;9.00;;;;;;;;;;5063770;28;20416;-69
2023/12/18 02:20:36;;;;;;;10.48;8.50;;;;;;;;;;5065452;28;20822;-69
2023/12/18 02:23:04;;;;;;;11.05;9.52;;;;;;;;;;5060022;28;20418;-69
2023/12/18 02:25:31;;;;;;;9.52;7.95;;;;;;;;;;5050730;28;20413;-70
2023/12/18 02:27:59;;;;;;;10.45;8.60;;;;;;;;;;5045508;28;20433;-70
2023/12/18 02:30:26;;;;;;;10.77;8.50;;;;;;;;;;5046703;28;20418;-69
2023/12/18 02:32:53;;;;;;;11.60;9.40;;;;;;;;;;5046621;28;20421;-70
2023/12/18 02:35:20;;;;;;;9.43;8.43;;;;;;;;;;5045719;28;21383;-69
2023/12/18 02:37:47;;;;;;;13.55;9.85;;;;;;;;;;5044455;28;20506;-69
2023/12/18 02:40:16;;;;;;;12.50;9.25;;;;;;;;;;5046251;28;20915;-69
2023/12/18 02:42:44;;;;;;;12.13;8.75;;;;;;;;;;5046646;28;20422;-70
2023/12/18 02:45:11;;;;;;;10.00;9.00;;;;;;;;;;5046290;28;20417;-70
2023/12/18 02:47:38;;;;;;;11.70;8.80;;;;;;;;;;5046420;28;20444;-69
2023/12/18 02:50:06;;;;;;;11.88;9.18;;;;;;;;;;5046262;28;20409;-69
2023/12/18 02:52:33;;;;;;;10.80;9.40;;;;;;;;;;5043354;28;20460;-69
2023/12/18 02:55:00;;;;;;;10.98;9.73;;;;;;;;;;5040894;28;20405;-70
2023/12/18 02:57:29;;;;;;;12.68;9.40;;;;;;;;;;5041776;28;20415;-69
2023/12/18 02:59:56;;;;;;;10.07;9.07;;;;;;;;;;5046959;28;20413;-69
2023/12/18 03:02:23;;;;;;;10.68;9.05;;;;;;;;;;5046393;28;20826;-69
2023/12/18 03:04:50;;;;;;;10.68;9.57;;;;;;;;;;5044489;28;20410;-70
2023/12/18 03:07:17;;;;;;;12.38;9.07;;;;;;;;;;5045285;28;20440;-70
2023/12/18 03:09:44;;;;;;;11.75;9.60;;;;;;;;;;5046532;28;20417;-69
2023/12/18 03:12:11;;;;;;;11.73;9.20;;;;;;;;;;5046073;28;20421;-70
2023/12/18 03:14:40;;;;;;;11.43;9.27;;;;;;;;;;5044890;28;20892;-69
2023/12/18 03:17:07;;;;;;;13.40;9.30;;;;;;;;;;5046302;28;20435;-69
2023/12/18 03:19:34;;;;;;;12.07;9.30;;;;;;;;;;5044542;28;20464;-70
2023/12/18 03:22:01;;;;;;;11.10;8.98;;;;;;;;;;5040355;28;20923;-69
2023/12/18 03:24:28;;;;;;;11.05;8.82;;;;;;;;;;5047108;28;20492;-70
2023/12/18 03:26:55;;;;;;;10.85;8.93;;;;;;;;;;5046203;28;20440;-69
2023/12/18 03:29:22;;;;;;;10.95;8.93;;;;;;;;;;5046650;28;20858;-69
2023/12/18 03:31:50;;;;;;;11.23;9.05;;;;;;;;;;5046314;28;21002;-69
2023/12/18 03:34:18;;;;;;;10.80;8.50;;;;;;;;;;5045239;28;20707;-69
2023/12/18 03:36:45;;;;;;;12.95;10.05;;;;;;;;;;5049309;28;20416;-70
2023/12/18 03:39:12;;;;;;;11.60;9.50;;;;;;;;;;5051256;28;20413;-69
2023/12/18 03:41:39;;;;;;;10.60;9.35;;;;;;;;;;5049733;28;20425;-69
2023/12/18 03:44:06;;;;;;;11.57;9.80;;;;;;;;;;5050691;28;20417;-70
2023/12/18 03:46:33;;;;;;;11.93;9.70;;;;;;;;;;5049430;28;20438;-69
2023/12/18 03:49:01;;;;;;;12.90;9.95;;;;;;;;;;5049620;28;20444;-69
2023/12/18 03:51:28;;;;;;;11.27;9.68;;;;;;;;;;5048720;28;20405;-70
2023/12/18 03:53:55;;;;;;;11.48;9.50;;;;;;;;;;5042475;28;20405;-69
2023/12/18 03:56:21;;;;;;;11.63;9.43;;;;;;;;;;5049349;28;20424;-69
2023/12/18 03:58:48;;;;;;;11.98;10.45;;;;;;;;;;5049750;28;21180;-69
2023/12/18 04:01:15;;;;;;;12.32;10.00;;;;;;;;;;5050317;28;20425;-69
2023/12/18 04:03:42;;;;;;;11.45;10.02;;;;;;;;;;5049167;28;20441;-69
2023/12/18 04:06:11;;;;;;;13.55;9.65;;;;;;;;;;5049068;28;20413;-69
2023/12/18 04:08:39;;;;;;;11.38;9.60;;;;;;;;;;5048892;28;20436;-71
2023/12/18 04:11:06;;;;;;;13.65;9.60;;;;;;;;;;5049844;28;20439;-70
2023/12/18 04:13:33;;;;;;;10.88;9.15;;;;;;;;;;5050231;28;20424;-69
2023/12/18 04:16:00;;;;;;;12.33;10.10;;;;;;;;;;5049364;28;20413;-71
2023/12/18 04:18:27;;;;;;;12.50;10.05;;;;;;;;;;5048135;28;20883;-69
2023/12/18 04:20:54;;;;;;;11.50;9.10;;;;;;;;;;5048321;28;20928;-69
2023/12/18 04:23:23;;;;;;;11.18;9.30;;;;;;;;;;5050035;28;20416;-69
2023/12/18 04:25:50;;;;;;;11.75;9.52;;;;;;;;;;5043434;28;20431;-69
2023/12/18 04:28:17;;;;;;;11.38;9.07;;;;;;;;;;5051591;28;20414;-69
2023/12/18 04:30:44;;;;;;;14.10;10.23;;;;;;;;;;5051189;28;20420;-69
2023/12/18 04:33:11;;;;;;;11.07;9.70;;;;;;;;;;5048182;28;20433;-70
2023/12/18 04:35:38;;;;;;;12.00;10.07;;;;;;;;;;5047927;28;20424;-69
2023/12/18 04:38:05;;;;;;;10.70;9.60;;;;;;;;;;5049872;28;20421;-70
2023/12/18 04:40:33;;;;;;;11.02;9.63;;;;;;;;;;5049520;28;20410;-69
2023/12/18 04:43:00;;;;;;;13.27;10.03;;;;;;;;;;5049196;28;20416;-69
2023/12/18 04:45:28;;;;;;;11.73;10.43;;;;;;;;;;5047889;28;20704;-70
2023/12/18 04:47:55;;;;;;;12.75;10.25;;;;;;;;;;5046688;28;20433;-70
2023/12/18 04:50:22;;;;;;;13.87;9.80;;;;;;;;;;5048487;28;20421;-70
2023/12/18 04:52:49;;;;;;;11.70;9.80;;;;;;;;;;5037245;28;20438;-70
2023/12/18 04:55:16;;;;;;;11.88;9.75;;;;;;;;;;5045126;28;20436;-70
2023/12/18 04:57:44;;;;;;;11.87;9.60;;;;;;;;;;5047744;28;20862;-70
2023/12/18 05:00:12;;;;;;;14.00;9.85;;;;;;;;;;5049146;28;20935;-70
2023/12/18 05:02:39;;;;;;;13.02;10.80;;;;;;;;;;5040529;28;20429;-69
2023/12/18 05:05:06;;;;;;;12.90;10.40;;;;;;;;;;5042069;28;20417;-70
2023/12/18 05:07:33;;;;;;;13.65;10.70;;;;;;;;;;5033953;28;20505;-69
2023/12/18 05:10:01;;;;;;;12.68;10.50;;;;;;;;;;5049101;28;20417;-70
2023/12/18 05:12:28;;;;;;;14.13;10.27;;;;;;;;;;5041646;28;20433;-71
2023/12/18 05:14:56;;;;;;;15.23;11.30;;;;;;;;;;5048566;28;20413;-70
2023/12/18 05:17:23;;;;;;;13.15;10.48;;;;;;;;;;5034855;28;20431;-70
2023/12/18 05:19:50;;;;;;;13.98;10.27;;;;;;;;;;5040730;28;20436;-69
2023/12/18 05:22:17;;;;;;;12.98;10.45;;;;;;;;;;5040315;28;20421;-69
2023/12/18 05:24:44;;;;;;;13.70;10.93;;;;;;;;;;5047672;28;20444;-70
2023/12/18 05:27:11;;;;;;;15.25;10.90;;;;;;;;;;5043951;28;20815;-69
2023/12/18 05:29:38;;;;;;;15.50;11.68;;;;;;;;;;5046408;28;20420;-71
2023/12/18 05:32:07;;;;;;;13.45;10.95;;;;;;;;;;5037963;28;20792;-71
2023/12/18 05:34:34;;;;;;;12.88;10.80;;;;;;;;;;5045513;28;20437;-71
2023/12/18 05:37:02;;;;;;;14.63;10.77;;;;;;;;;;5039568;28;20409;-71
2023/12/18 05:39:29;;;;;;;14.02;10.45;;;;;;;;;;5047683;28;20437;-71
2023/12/18 05:41:56;;;;;;;14.90;10.48;;;;;;;;;;5046911;28;20429;-70
2023/12/18 05:44:23;;;;;;;15.48;10.50;;;;;;;;;;5048864;28;20417;-71
2023/12/18 05:46:50;;;;;;;11.55;9.98;;;;;;;;;;5043659;28;20421;-71
2023/12/18 05:49:18;;;;;;;12.30;9.70;;;;;;;;;;5046969;28;20433;-69
2023/12/18 05:51:46;;;;;;;10.88;9.75;;;;;;;;;;5043789;28;20417;-69
2023/12/18 05:54:13;;;;;;;12.40;10.73;;;;;;;;;;5040587;28;20475;-72
2023/12/18 05:56:40;;;;;;;12.55;11.25;;;;;;;;;;5046235;28;20433;-69
2023/12/18 05:59:07;;;;;;;11.25;9.77;;;;;;;;;;5047483;28;20444;-69
2023/12/18 06:01:34;;;;;;;12.90;11.18;;;;;;;;;;5040612;28;20431;-69
2023/12/18 06:04:01;;;;;;;13.50;10.48;;;;;;;;;;5045800;28;20487;-70
2023/12/18 06:06:29;;;;;;;13.90;10.50;;;;;;;;;;5040410;28;20950;-69
2023/12/18 06:08:56;;;;;;;12.13;10.25;;;;;;;;;;5048186;28;20440;-69
2023/12/18 06:11:23;;;;;;;14.05;10.20;;;;;;;;;;5047823;28;20406;-70
2023/12/18 06:13:50;;;;;;;13.50;10.73;;;;;;;;;;5040404;28;20405;-71
2023/12/18 06:16:17;;;;;;;12.32;10.25;;;;;;;;;;5045302;28;20950;-71
2023/12/18 06:18:44;;;;;;;12.52;10.70;;;;;;;;;;5046914;28;20440;-70
2023/12/18 06:21:11;;;;;;;13.05;10.50;;;;;;;;;;5046085;28;20724;-68
2023/12/18 06:23:40;;;;;;;13.68;10.05;;;;;;;;;;5039033;28;20413;-71
2023/12/18 06:26:07;;;;;;;13.15;10.52;;;;;;;;;;5037857;28;20418;-68
2023/12/18 06:28:34;;;;;;;14.47;10.17;;;;;;;;;;5044262;28;20432;-70
2023/12/18 06:31:01;;;;;;;13.20;10.20;;;;;;;;;;5045694;28;20452;-72
2023/12/18 06:33:28;;;;;;;15.05;11.38;;;;;;;;;;5041943;28;20915;-70
2023/12/18 06:35:55;;;;;;;15.88;11.63;;;;;;;;;;5041854;28;20429;-69
2023/12/18 06:38:22;;;;;;;13.38;10.48;;;;;;;;;;5040985;28;20962;-71
2023/12/18 06:40:51;;;;;;;12.18;10.88;;;;;;;;;;5046691;28;20432;-70
2023/12/18 06:43:18;;;;;;;12.68;9.82;;;;;;;;;;5046326;28;20903;-70
2023/12/18 06:45:45;;;;;;;12.45;10.10;;;;;;;;;;5043923;28;20429;-70
2023/12/18 06:48:12;;;;;;;12.40;10.63;;;;;;;;;;5047367;28;20432;-70
2023/12/18 06:50:39;;;;;;;11.50;9.60;;;;;;;;;;5045868;28;20544;-71
2023/12/18 06:53:06;;;;;;;11.93;9.77;;;;;;;;;;5034992;28;20443;-70
2023/12/18 06:55:34;;;;;;;13.18;10.38;;;;;;;;;;5037643;28;20983;-70
2023/12/18 06:58:02;;;;;;;16.27;10.88;;;;;;;;;;5044981;28;20879;-71
2023/12/18 07:00:29;;;;;;;12.68;9.70;;;;;;;;;;5043713;28;20441;-70
2023/12/18 07:02:56;;;;;;;11.93;9.85;;;;;;;;;;5039369;28;20425;-70
2023/12/18 07:05:24;;;;;;;12.43;10.60;;;;;;;;;;5035473;28;20442;-69
2023/12/18 07:07:52;;;;;;;12.98;11.05;;;;;;;;;;5040761;28;20437;-70
2023/12/18 07:10:19;;;;;;;14.55;11.05;;;;;;;;;;5045042;28;20413;-71
2023/12/18 07:12:46;;;;;;;16.02;11.20;;;;;;;;;;5045887;28;20881;-71
2023/12/18 07:15:14;;;;;;;12.03;10.00;;;;;;;;;;5039735;28;20442;-69
2023/12/18 07:17:41;;;;;;;12.77;9.63;;;;;;;;;;5045519;28;20429;-70
2023/12/18 07:20:09;;;;;;;13.75;9.98;;;;;;;;;;5041785;28;20433;-70
2023/12/18 07:22:36;;;;;;;11.40;10.20;;;;;;;;;;5036290;28;20935;-70
2023/12/18 07:25:03;;;;;;;13.13;10.30;;;;;;;;;;5041549;28;20409;-70
2023/12/18 07:27:30;;;;;;;12.82;9.93;;;;;;;;;;5045010;28;20444;-69
2023/12/18 07:29:58;;;;;;;13.15;10.15;;;;;;;;;;5036743;28;20427;-70
2023/12/18 07:32:26;;;;;;;12.50;10.30;;;;;;;;;;5043175;28;20409;-69
2023/12/18 07:34:53;;;;;;;12.55;10.20;;;;;;;;;;5032749;28;20435;-69
2023/12/18 07:37:20;;;;;;;11.65;9.80;;;;;;;;;;5043795;28;20431;-70
2023/12/18 07:39:47;;;;;;;11.20;9.52;;;;;;;;;;5040750;28;20423;-70
2023/12/18 07:42:14;;;;;;;11.95;9.85;;;;;;;;;;5046050;28;20465;-70
2023/12/18 07:44:41;;;;;;;11.10;9.70;;;;;;;;;;5042856;28;20428;-70
2023/12/18 07:47:09;;;;;;;13.38;10.43;;;;;;;;;;5037597;28;20963;-70
2023/12/18 07:49:38;;;;;;;12.80;9.55;;;;;;;;;;5042852;28;20744;-69
2023/12/18 07:52:05;;;;;;;12.27;10.52;;;;;;;;;;5044206;28;20526;-70
2023/12/18 07:54:32;;;;;;;12.65;9.93;;;;;;;;;;5047108;28;20419;-70
2023/12/18 07:56:59;;;;;;;12.45;10.52;;;;;;;;;;5035350;28;20433;-69
2023/12/18 07:59:26;;;;;;;10.77;9.68;;;;;;;;;;5043608;28;20436;-70
2023/12/18 08:01:52;;;;;;;11.07;9.80;;;;;;;;;;5037271;28;20437;-70
2023/12/18 08:04:19;;;;;;;10.48;9.40;;;;;;;;;;5036962;28;20434;-70
2023/12/18 08:06:51;;;;;;;11.70;9.10;;;;;;;;;;5042910;28;20432;-70
2023/12/18 08:09:18;;;;;;;11.40;9.93;;;;;;;;;;5040824;28;20421;-69
2023/12/18 08:11:45;;;;;;;12.50;10.00;;;;;;;;;;5042607;28;20438;-71
2023/12/18 08:14:12;;;;;;;12.95;9.80;;;;;;;;;;5040637;28;20441;-70
2023/12/18 08:16:39;;;;;;;13.13;10.52;;;;;;;;;;5040107;28;20440;-71
2023/12/18 08:19:08;;;;;;;11.95;10.65;;;;;;;;;;5040721;28;20420;-71
2023/12/18 08:21:35;;;;;;;12.63;10.15;;;;;;;;;;5045332;28;20433;-69
2023/12/18 08:24:04;;;;;;;11.93;10.10;;;;;;;;;;5043584;28;20432;-69
2023/12/18 08:26:31;;;;;;;11.90;10.10;;;;;;;;;;5047005;28;20414;-70
2023/12/18 08:28:58;;;;;;;11.65;10.00;;;;;;;;;;5047536;28;20421;-69
2023/12/18 08:31:26;;;;;;;10.90;9.63;;;;;;;;;;5048985;28;20429;-69
2023/12/18 08:33:53;;;;;;;11.00;9.60;;;;;;;;;;5047344;28;20421;-69
2023/12/18 08:36:21;;;;;;;11.60;10.40;;;;;;;;;;5047327;28;20861;-69
2023/12/18 08:38:48;;;;;;;12.65;10.18;;;;;;;;;;5048364;28;20946;-69
2023/12/18 08:41:16;;;;;;;11.25;10.05;;;;;;;;;;5049105;28;20417;-71
2023/12/18 08:43:43;;;;;;;11.02;9.88;;;;;;;;;;5046285;28;20433;-69
2023/12/18 08:46:10;;;;;;;12.18;9.73;;;;;;;;;;5042153;28;20452;-70
2023/12/18 08:48:37;;;;;;;11.05;9.95;;;;;;;;;;5048870;28;20421;-71
2023/12/18 08:51:05;;;;;;;11.98;9.80;;;;;;;;;;5048829;28;20861;-69
2023/12/18 08:53:32;;;;;;;11.70;9.55;;;;;;;;;;5046631;28;20416;-70
2023/12/18 08:55:59;;;;;;;14.65;10.23;;;;;;;;;;5045701;28;20860;-70
2023/12/18 08:58:28;;;;;;;11.00;9.90;;;;;;;;;;5049631;28;20760;-69
2023/12/18 09:00:55;;;;;;;11.18;9.93;;;;;;;;;;5042658;28;20425;-69
2023/12/18 09:03:22;;;;;;;10.98;9.88;;;;;;;;;;5036550;28;20575;-69
2023/12/18 09:05:49;;;;;;;11.43;10.17;;;;;;;;;;5046221;28;20517;-69
2023/12/18 09:08:16;;;;;;;12.15;10.10;;;;;;;;;;5045147;28;20433;-70
2023/12/18 09:10:43;;;;;;;11.20;9.87;;;;;;;;;;5048550;28;20436;-69
2023/12/18 09:13:10;;;;;;;11.77;9.75;;;;;;;;;;5043935;28;20436;-68
2023/12/18 09:15:40;;;;;;;13.52;9.52;;;;;;;;;;5046202;28;20420;-68
2023/12/18 09:18:07;;;;;;;11.00;9.85;;;;;;;;;;5046333;28;20958;-70
2023/12/18 09:20:34;;;;;;;11.82;9.32;;;;;;;;;;5048695;28;20413;-70
2023/12/18 09:23:05;;;;;;;12.85;10.48;;;;;;;;;;5041468;28;20429;-70
2023/12/18 09:25:32;;;;;;;11.40;9.48;;;;;;;;;;5048090;28;20524;-70
2023/12/18 09:27:59;;;;;;;10.65;9.55;;;;;;;;;;5041404;28;20954;-71
2023/12/18 09:30:26;;;;;;;11.80;10.60;;;;;;;;;;5044535;28;20415;-71
2023/12/18 09:32:54;;;;;;;10.90;9.80;;;;;;;;;;5039801;28;20438;-71
2023/12/18 09:35:21;;;;;;;12.30;9.85;;;;;;;;;;5048526;28;20424;-71
2023/12/18 09:37:48;;;;;;;11.70;9.73;;;;;;;;;;5047591;28;20410;-69
2023/12/18 09:40:16;;;;;;;11.23;10.13;;;;;;;;;;5046321;28;20429;-68
2023/12/18 09:42:43;;;;;;;12.00;10.10;;;;;;;;;;5043723;28;20435;-69
2023/12/18 09:45:10;;;;;;;11.10;9.80;;;;;;;;;;5046352;28;20426;-70
2023/12/18 09:47:37;;;;;;;11.75;10.15;;;;;;;;;;5045363;28;20523;-70
2023/12/18 09:50:08;;;;;;;11.00;9.80;;;;;;;;;;5048573;28;20917;-69
2023/12/18 09:52:38;;;;;;;11.80;10.00;;;;;;;;;;5043494;28;20423;-70
2023/12/18 09:55:06;;;;;;;11.80;10.45;;;;;;;;;;5046198;28;20448;-70
2023/12/18 09:57:33;;;;;;;10.30;9.30;;;;;;;;;;5045107;28;20430;-70
2023/12/18 10:00:00;;;;;;;11.65;10.38;;;;;;;;;;5039836;28;20923;-70
2023/12/18 10:02:27;;;;;;;11.88;10.32;;;;;;;;;;5041549;28;20850;-70
2023/12/18 10:04:55;;;;;;;10.70;9.50;;;;;;;;;;5045405;28;20421;-70
2023/12/18 10:07:23;;;;;;;11.57;9.80;;;;;;;;;;5045901;28;20433;-70
2023/12/18 10:09:50;;;;;;;10.57;9.48;;;;;;;;;;5046540;28;20440;-70
2023/12/18 10:12:18;;;;;;;11.82;10.63;;;;;;;;;;5047787;28;20440;-67
2023/12/18 10:14:45;;;;;;;10.27;9.20;;;;;;;;;;5047357;28;20474;-70
2023/12/18 10:17:12;;;;;;;12.32;9.90;;;;;;;;;;5041657;28;20521;-71
2023/12/18 10:19:43;;;;;;;12.02;9.23;;;;;;;;;;5037141;28;20419;-69
2023/12/18 10:22:10;;;;;;;10.75;9.63;;;;;;;;;;5046699;28;21566;-71
2023/12/18 10:24:42;;;;;;;10.48;9.38;;;;;;;;;;5047672;28;20433;-72
2023/12/18 10:27:10;;;;;;;11.87;10.67;;;;;;;;;;5045916;28;20796;-69
2023/12/18 10:29:37;;;;;;;11.13;10.02;;;;;;;;;;5040325;28;20419;-70
2023/12/18 10:32:04;;;;;;;11.20;10.10;;;;;;;;;;5044470;28;20535;-70
2023/12/18 10:34:36;;;;;;;12.10;10.80;;;;;;;;;;5033092;28;20434;-70
2023/12/18 10:37:03;;;;;;;11.00;10.00;;;;;;;;;;5044937;28;20842;-70
2023/12/18 10:39:31;;;;;;;12.95;10.45;;;;;;;;;;5046220;28;20417;-71
2023/12/18 10:42:00;;;;;;;12.50;10.60;;;;;;;;;;5038759;28;20804;-70
2023/12/18 10:44:29;;;;;;;11.65;10.35;;;;;;;;;;5042951;28;20429;-64
2023/12/18 10:46:56;;;;;;;11.48;10.27;;;;;;;;;;5045517;28;20433;-69
2023/12/18 10:49:23;;;;;;;11.90;10.70;;;;;;;;;;5045388;28;20429;-66
2023/12/18 10:51:51;;;;;;;12.75;11.32;;;;;;;;;;5031914;28;21063;-67
2023/12/18 10:54:18;;;;;;;14.13;11.53;;;;;;;;;;5041123;28;20463;-67
2023/12/18 10:56:47;;;;;;;12.00;10.70;;;;;;;;;;5044653;28;20433;-66
2023/12/18 10:59:17;;;;;;;12.05;10.75;;;;;;;;;;5046963;28;20421;-65
2023/12/18 11:01:44;;;;;;;11.55;10.35;;;;;;;;;;5045298;28;20447;-66
2023/12/18 11:04:13;;;;;;;11.45;10.35;;;;;;;;;;5069341;22;20464;-68
2023/12/18 11:06:40;;;;;;;12.50;11.20;;;;;;;;;;5073642;28;20429;-70
2023/12/18 11:09:07;;;;;;;12.20;11.00;;;;;;;;;;5080856;28;20870;-72
2023/12/18 11:11:35;;;;;;;12.25;10.82;;;;;;;;;;5083821;28;20432;-72
2023/12/18 11:14:11;;;;;;;13.95;11.18;;;;;;;;;;5078180;28;20421;-71
2023/12/18 11:16:47;;;;;;;12.80;11.50;;;;;;;;;;5058558;28;20435;-72
2023/12/18 11:19:18;;;;;;;13.25;11.85;;;;;;;;;;5059501;28;20438;-72
2023/12/18 11:21:49;;;;;;;14.18;12.40;;;;;;;;;;5062023;28;20431;-72
2023/12/18 11:24:16;;;;;;;13.18;11.77;;;;;;;;;;5062532;28;20430;-72
2023/12/18 11:26:45;;;;;;;12.83;11.47;;;;;;;;;;5059867;28;20409;-72
2023/12/18 11:29:27;;;;;;;12.45;11.20;;;;;;;;;;5056349;28;20416;-72
2023/12/18 11:31:59;;;;;;;12.63;11.43;;;;;;;;;;5057097;28;20431;-71
2023/12/18 11:34:26;;;;;;;12.45;11.25;;;;;;;;;;5065134;28;20437;-72
2023/12/18 11:36:54;;;;;;;13.32;11.40;;;;;;;;;;5061366;28;20518;-72
2023/12/18 11:39:21;;;;;;;13.00;11.60;;;;;;;;;;5061369;28;20485;-71
2023/12/18 11:41:48;;;;;;;13.25;11.90;;;;;;;;;;5055306;28;20443;-72
2023/12/18 11:44:16;;;;;;;12.50;11.30;;;;;;;;;;5059860;28;20514;-72
2023/12/18 11:46:44;;;;;;;13.07;11.82;;;;;;;;;;5056364;28;20463;-72
2023/12/18 11:49:13;;;;;;;13.60;12.30;;;;;;;;;;5062926;28;20500;-72
2023/12/18 11:51:42;;;;;;;13.93;12.13;;;;;;;;;;5058987;28;20434;-72
2023/12/18 11:54:09;;;;;;;12.38;11.18;;;;;;;;;;5060560;28;20940;-72
2023/12/18 11:56:39;;;;;;;13.02;11.82;;;;;;;;;;5055546;28;20427;-72
2023/12/18 11:59:07;;;;;;;12.70;11.50;;;;;;;;;;5064094;28;20427;-72
2023/12/18 12:01:34;;;;;;;13.73;12.32;;;;;;;;;;5063547;28;20438;-71
2023/12/18 12:04:01;;;;;;;14.32;12.82;;;;;;;;;;5063159;28;20875;-72
2023/12/18 12:06:30;;;;;;;12.13;10.63;;;;;;;;;;5063631;28;20424;-72
2023/12/18 12:08:57;;;;;;;12.15;10.75;;;;;;;;;;5050309;28;20888;-72
2023/12/18 12:11:24;;;;;;;11.32;9.70;;;;;;;;;;5064743;28;20427;-72
2023/12/18 12:13:54;;;;;;;11.25;9.70;;;;;;;;;;5065710;28;20507;-72
2023/12/18 12:16:22;;;;;;;11.60;10.40;;;;;;;;;;5063385;28;20427;-72
2023/12/18 12:18:50;;;;;;;10.93;9.93;;;;;;;;;;5066460;28;20959;-72
2023/12/18 12:21:18;;;;;;;11.00;9.90;;;;;;;;;;5060520;28;20435;-73
2023/12/18 12:23:47;;;;;;;11.95;10.75;;;;;;;;;;5057966;28;20450;-73
2023/12/18 12:26:15;;;;;;;10.13;9.23;;;;;;;;;;5061845;28;20531;-73
2023/12/18 12:28:43;;;;;;;10.60;9.60;;;;;;;;;;5064990;28;20523;-73
2023/12/18 12:31:10;;;;;;;10.45;9.40;;;;;;;;;;5055346;28;20445;-73
2023/12/18 12:33:40;;;;;;;10.90;9.85;;;;;;;;;;5062620;28;20427;-73
2023/12/18 12:36:07;;;;;;;11.10;10.10;;;;;;;;;;5063206;28;20415;-72
2023/12/18 12:38:36;;;;;;;10.60;9.50;;;;;;;;;;5064420;28;20816;-73
2023/12/18 12:41:05;;;;;;;10.80;9.70;;;;;;;;;;5064404;28;20490;-73
2023/12/18 12:43:33;;;;;;;11.88;10.45;;;;;;;;;;5059845;28;20836;-73
2023/12/18 12:46:00;;;;;;;12.00;10.90;;;;;;;;;;5061165;28;20649;-73
2023/12/18 12:48:27;;;;;;;11.10;10.10;;;;;;;;;;5062674;28;20482;-73
2023/12/18 12:50:54;;;;;;;11.73;10.60;;;;;;;;;;5063624;28;20415;-72
2023/12/18 12:53:23;;;;;;;11.50;10.32;;;;;;;;;;5065341;28;20504;-73
2023/12/18 12:55:50;;;;;;;11.00;10.00;;;;;;;;;;5064618;28;20428;-73
2023/12/18 12:58:18;;;;;;;10.82;9.77;;;;;;;;;;5063351;28;20416;-73
2023/12/18 13:00:45;;;;;;;11.50;10.30;;;;;;;;;;5058280;28;20529;-73
2023/12/18 13:03:12;;;;;;;10.82;9.75;;;;;;;;;;5062549;28;20424;-73
2023/12/18 13:05:39;;;;;;;10.80;9.80;;;;;;;;;;5057564;28;20912;-73
2023/12/18 13:08:08;;;;;;;11.13;10.07;;;;;;;;;;5063453;28;20423;-72
2023/12/18 13:10:35;;;;;;;9.90;8.90;;;;;;;;;;5063266;28;20822;-73
2023/12/18 13:13:02;;;;;;;13.00;10.20;;;;;;;;;;5063175;28;20467;-73
2023/12/18 13:15:31;;;;;;;10.37;9.47;;;;;;;;;;5063072;28;20509;-73
2023/12/18 13:17:58;;;;;;;10.50;9.60;;;;;;;;;;5062575;28;20443;-73
2023/12/18 13:20:26;;;;;;;10.77;9.88;;;;;;;;;;5062922;28;20419;-73
2023/12/18 13:22:54;;;;;;;10.00;9.10;;;;;;;;;;5062988;28;20496;-73
2023/12/18 13:25:21;;;;;;;9.90;9.00;;;;;;;;;;5065445;28;20511;-73
2023/12/18 13:27:48;;;;;;;10.50;9.10;;;;;;;;;;5061458;28;20422;-73
2023/12/18 13:30:15;;;;;;;10.10;9.20;;;;;;;;;;5061491;28;20438;-73
2023/12/18 13:32:44;;;;;;;10.55;9.60;;;;;;;;;;5062140;28;20488;-73
2023/12/18 13:35:11;;;;;;;10.20;9.30;;;;;;;;;;5063785;28;20877;-73
2023/12/18 13:37:39;;;;;;;10.30;9.27;;;;;;;;;;5062646;28;20859;-73
2023/12/18 13:40:06;;;;;;;9.93;9.02;;;;;;;;;;5059518;28;20430;-72
2023/12/18 13:42:33;;;;;;;10.20;9.20;;;;;;;;;;5062839;28;20419;-72
2023/12/18 13:45:01;;;;;;;13.00;10.07;;;;;;;;;;5057988;28;20446;-73
2023/12/18 13:47:28;;;;;;;10.82;9.68;;;;;;;;;;5064100;28;20487;-72
2023/12/18 13:49:57;;;;;;;10.35;9.25;;;;;;;;;;5056627;28;20772;-73
2023/12/18 13:52:25;;;;;;;10.90;9.80;;;;;;;;;;5059005;28;20468;-74
2023/12/18 13:54:52;;;;;;;11.50;10.45;;;;;;;;;;5046691;28;20523;-75
2023/12/18 13:57:19;;;;;;;11.27;10.13;;;;;;;;;;5054597;28;20446;-74
2023/12/18 13:59:46;;;;;;;11.05;9.85;;;;;;;;;;5059563;28;20518;-74
2023/12/18 14:02:13;;;;;;;10.43;9.48;;;;;;;;;;5053714;28;20873;-74
2023/12/18 14:04:40;;;;;;;13.93;11.07;;;;;;;;;;5062766;28;20514;-74
2023/12/18 14:07:09;;;;;;;11.55;10.35;;;;;;;;;;5061072;28;20434;-74
2023/12/18 14:09:36;;;;;;;10.35;9.30;;;;;;;;;;5065260;28;20412;-74
2023/12/18 14:12:03;;;;;;;10.50;9.40;;;;;;;;;;5061078;28;20886;-74
2023/12/18 14:14:30;;;;;;;11.20;10.00;;;;;;;;;;5061865;28;20458;-74
2023/12/18 14:16:57;;;;;;;9.73;8.75;;;;;;;;;;5064350;28;20408;-74
2023/12/18 14:19:24;;;;;;;11.95;10.63;;;;;;;;;;5061055;28;20460;-74
2023/12/18 14:21:51;;;;;;;11.02;9.70;;;;;;;;;;5062365;28;20504;-74
2023/12/18 14:24:20;;;;;;;10.13;9.23;;;;;;;;;;5064633;28;20793;-73
2023/12/18 14:26:47;;;;;;;10.60;9.30;;;;;;;;;;5060358;28;20526;-74